sensor_id;sensor_type;location;lat;lon;timestamp;P1;durP1;ratioP1;P2;durP2;ratioP2
37355;SDS011;48747;50.250;18.848;2023-07-16T00:01:14;8.25;;;5.78;;
37355;SDS011;48747;50.250;18.848;2023-07-16T00:03:17;6.33;;;5.08;;
37355;SDS011;48747;50.250;18.848;2023-07-16T00:05:21;7.30;;;5.22;;
37355;SDS011;48747;50.250;18.848;2023-07-16T00:07:24;8.43;;;5.72;;
37355;SDS011;48747;50.250;18.848;2023-07-16T00:09:27;9.75;;;6.12;;
37355;SDS011;48747;50.250;18.848;2023-07-16T00:11:30;7.80;;;5.65;;
37355;SDS011;48747;50.250;18.848;2023-07-16T00:13:34;9.95;;;5.72;;
37355;SDS011;48747;50.250;18.848;2023-07-16T00:15:37;7.80;;;5.40;;
37355;SDS011;48747;50.250;18.848;2023-07-16T00:17:40;9.20;;;5.85;;
37355;SDS011;48747;50.250;18.848;2023-07-16T00:19:43;7.62;;;5.78;;
37355;SDS011;48747;50.250;18.848;2023-07-16T00:21:46;9.48;;;6.20;;
37355;SDS011;48747;50.250;18.848;2023-07-16T00:23:49;9.10;;;6.45;;
37355;SDS011;48747;50.250;18.848;2023-07-16T00:25:52;8.10;;;6.08;;
37355;SDS011;48747;50.250;18.848;2023-07-16T00:27:55;7.65;;;5.95;;
37355;SDS011;48747;50.250;18.848;2023-07-16T00:29:59;8.98;;;6.20;;
37355;SDS011;48747;50.250;18.848;2023-07-16T00:32:02;8.55;;;6.42;;
37355;SDS011;48747;50.250;18.848;2023-07-16T00:34:05;9.85;;;6.08;;
37355;SDS011;48747;50.250;18.848;2023-07-16T00:36:08;8.28;;;6.58;;
37355;SDS011;48747;50.250;18.848;2023-07-16T00:38:11;8.68;;;6.42;;
37355;SDS011;48747;50.250;18.848;2023-07-16T00:40:14;9.83;;;6.65;;
37355;SDS011;48747;50.250;18.848;2023-07-16T00:42:17;9.20;;;6.92;;
37355;SDS011;48747;50.250;18.848;2023-07-16T00:44:20;8.68;;;6.60;;
37355;SDS011;48747;50.250;18.848;2023-07-16T00:46:24;10.05;;;6.33;;
37355;SDS011;48747;50.250;18.848;2023-07-16T00:48:27;10.55;;;6.78;;
37355;SDS011;48747;50.250;18.848;2023-07-16T00:50:31;12.28;;;6.90;;
37355;SDS011;48747;50.250;18.848;2023-07-16T00:52:38;8.55;;;6.53;;
37355;SDS011;48747;50.250;18.848;2023-07-16T00:54:41;9.70;;;6.65;;
37355;SDS011;48747;50.250;18.848;2023-07-16T00:56:45;8.65;;;6.85;;
37355;SDS011;48747;50.250;18.848;2023-07-16T00:58:48;13.93;;;6.60;;
37355;SDS011;48747;50.250;18.848;2023-07-16T01:00:51;7.20;;;5.92;;
37355;SDS011;48747;50.250;18.848;2023-07-16T01:02:54;10.00;;;6.40;;
37355;SDS011;48747;50.250;18.848;2023-07-16T01:04:57;8.45;;;6.60;;
37355;SDS011;48747;50.250;18.848;2023-07-16T01:07:01;8.38;;;6.35;;
37355;SDS011;48747;50.250;18.848;2023-07-16T01:09:07;10.10;;;6.70;;
37355;SDS011;48747;50.250;18.848;2023-07-16T01:11:12;9.55;;;6.47;;
37355;SDS011;48747;50.250;18.848;2023-07-16T01:13:17;7.75;;;6.47;;
37355;SDS011;48747;50.250;18.848;2023-07-16T01:15:20;13.43;;;7.20;;
37355;SDS011;48747;50.250;18.848;2023-07-16T01:17:24;9.10;;;6.30;;
37355;SDS011;48747;50.250;18.848;2023-07-16T01:19:27;13.13;;;6.72;;
37355;SDS011;48747;50.250;18.848;2023-07-16T01:21:34;7.95;;;6.30;;
37355;SDS011;48747;50.250;18.848;2023-07-16T01:26:08;11.75;;;7.45;;
37355;SDS011;48747;50.250;18.848;2023-07-16T01:30:34;11.53;;;7.47;;
37355;SDS011;48747;50.250;18.848;2023-07-16T01:32:40;10.90;;;8.23;;
37355;SDS011;48747;50.250;18.848;2023-07-16T01:34:44;12.13;;;9.05;;
37355;SDS011;48747;50.250;18.848;2023-07-16T01:36:47;13.60;;;10.82;;
37355;SDS011;48747;50.250;18.848;2023-07-16T01:38:51;15.20;;;11.63;;
37355;SDS011;48747;50.250;18.848;2023-07-16T01:40:54;17.17;;;11.38;;
37355;SDS011;48747;50.250;18.848;2023-07-16T01:42:57;13.83;;;10.35;;
37355;SDS011;48747;50.250;18.848;2023-07-16T01:45:00;13.43;;;10.28;;
37355;SDS011;48747;50.250;18.848;2023-07-16T01:47:10;13.50;;;8.53;;
37355;SDS011;48747;50.250;18.848;2023-07-16T01:49:15;11.28;;;8.33;;
37355;SDS011;48747;50.250;18.848;2023-07-16T01:51:18;15.58;;;8.48;;
37355;SDS011;48747;50.250;18.848;2023-07-16T01:53:21;12.55;;;8.58;;
37355;SDS011;48747;50.250;18.848;2023-07-16T01:55:25;10.43;;;7.70;;
37355;SDS011;48747;50.250;18.848;2023-07-16T01:57:27;12.15;;;8.50;;
37355;SDS011;48747;50.250;18.848;2023-07-16T01:59:30;11.22;;;8.03;;
37355;SDS011;48747;50.250;18.848;2023-07-16T02:01:33;11.35;;;9.35;;
37355;SDS011;48747;50.250;18.848;2023-07-16T02:03:36;12.47;;;8.85;;
37355;SDS011;48747;50.250;18.848;2023-07-16T02:05:39;11.78;;;8.95;;
37355;SDS011;48747;50.250;18.848;2023-07-16T02:07:42;11.70;;;9.25;;
37355;SDS011;48747;50.250;18.848;2023-07-16T02:09:45;13.35;;;8.18;;
37355;SDS011;48747;50.250;18.848;2023-07-16T02:11:48;18.45;;;8.65;;
37355;SDS011;48747;50.250;18.848;2023-07-16T02:13:51;10.90;;;7.60;;
37355;SDS011;48747;50.250;18.848;2023-07-16T02:15:54;8.90;;;6.97;;
37355;SDS011;48747;50.250;18.848;2023-07-16T02:17:57;10.28;;;7.47;;
37355;SDS011;48747;50.250;18.848;2023-07-16T02:20:01;10.78;;;7.45;;
37355;SDS011;48747;50.250;18.848;2023-07-16T02:22:05;9.70;;;7.28;;
37355;SDS011;48747;50.250;18.848;2023-07-16T02:24:09;9.78;;;7.30;;
37355;SDS011;48747;50.250;18.848;2023-07-16T02:26:12;10.65;;;6.95;;
37355;SDS011;48747;50.250;18.848;2023-07-16T02:28:15;9.10;;;6.55;;
37355;SDS011;48747;50.250;18.848;2023-07-16T02:30:19;8.30;;;6.70;;
37355;SDS011;48747;50.250;18.848;2023-07-16T02:32:22;9.90;;;6.78;;
37355;SDS011;48747;50.250;18.848;2023-07-16T02:34:25;9.50;;;6.80;;
37355;SDS011;48747;50.250;18.848;2023-07-16T02:36:28;9.85;;;6.37;;
37355;SDS011;48747;50.250;18.848;2023-07-16T02:38:31;10.10;;;6.80;;
37355;SDS011;48747;50.250;18.848;2023-07-16T02:40:34;8.68;;;6.83;;
37355;SDS011;48747;50.250;18.848;2023-07-16T02:42:37;8.48;;;6.35;;
37355;SDS011;48747;50.250;18.848;2023-07-16T02:44:40;9.18;;;6.42;;
37355;SDS011;48747;50.250;18.848;2023-07-16T02:46:45;9.93;;;6.72;;
37355;SDS011;48747;50.250;18.848;2023-07-16T02:48:48;7.97;;;6.62;;
37355;SDS011;48747;50.250;18.848;2023-07-16T02:50:51;9.05;;;7.08;;
37355;SDS011;48747;50.250;18.848;2023-07-16T02:52:54;8.80;;;6.22;;
37355;SDS011;48747;50.250;18.848;2023-07-16T02:54:57;7.60;;;6.15;;
37355;SDS011;48747;50.250;18.848;2023-07-16T02:57:00;8.90;;;5.97;;
37355;SDS011;48747;50.250;18.848;2023-07-16T02:59:03;9.38;;;6.33;;
37355;SDS011;48747;50.250;18.848;2023-07-16T03:01:06;8.63;;;6.22;;
37355;SDS011;48747;50.250;18.848;2023-07-16T03:03:09;10.85;;;5.85;;
37355;SDS011;48747;50.250;18.848;2023-07-16T03:05:12;9.20;;;6.33;;
37355;SDS011;48747;50.250;18.848;2023-07-16T03:07:15;8.15;;;5.90;;
37355;SDS011;48747;50.250;18.848;2023-07-16T03:09:18;7.60;;;6.00;;
37355;SDS011;48747;50.250;18.848;2023-07-16T03:11:21;9.88;;;5.78;;
37355;SDS011;48747;50.250;18.848;2023-07-16T03:13:24;9.20;;;6.03;;
37355;SDS011;48747;50.250;18.848;2023-07-16T03:15:27;6.85;;;5.78;;
37355;SDS011;48747;50.250;18.848;2023-07-16T03:17:31;10.28;;;5.83;;
37355;SDS011;48747;50.250;18.848;2023-07-16T03:19:34;7.72;;;5.97;;
37355;SDS011;48747;50.250;18.848;2023-07-16T03:21:37;7.33;;;5.83;;
37355;SDS011;48747;50.250;18.848;2023-07-16T03:23:40;8.43;;;5.83;;
37355;SDS011;48747;50.250;18.848;2023-07-16T03:25:43;7.45;;;5.92;;
37355;SDS011;48747;50.250;18.848;2023-07-16T03:27:47;10.32;;;5.87;;
37355;SDS011;48747;50.250;18.848;2023-07-16T03:29:50;11.33;;;6.33;;
37355;SDS011;48747;50.250;18.848;2023-07-16T03:31:53;7.62;;;6.00;;
37355;SDS011;48747;50.250;18.848;2023-07-16T03:33:56;8.28;;;6.15;;
37355;SDS011;48747;50.250;18.848;2023-07-16T03:35:59;7.25;;;5.72;;
37355;SDS011;48747;50.250;18.848;2023-07-16T03:38:02;10.10;;;5.75;;
37355;SDS011;48747;50.250;18.848;2023-07-16T03:40:12;6.80;;;5.08;;
37355;SDS011;48747;50.250;18.848;2023-07-16T03:42:19;8.00;;;5.33;;
37355;SDS011;48747;50.250;18.848;2023-07-16T03:44:23;10.00;;;5.72;;
37355;SDS011;48747;50.250;18.848;2023-07-16T03:46:26;6.60;;;5.28;;
37355;SDS011;48747;50.250;18.848;2023-07-16T03:48:29;6.85;;;5.35;;
37355;SDS011;48747;50.250;18.848;2023-07-16T03:50:32;10.38;;;5.97;;
37355;SDS011;48747;50.250;18.848;2023-07-16T03:52:36;6.25;;;5.25;;
37355;SDS011;48747;50.250;18.848;2023-07-16T03:54:39;6.78;;;4.90;;
37355;SDS011;48747;50.250;18.848;2023-07-16T03:56:42;7.45;;;4.97;;
37355;SDS011;48747;50.250;18.848;2023-07-16T03:58:45;9.58;;;5.20;;
37355;SDS011;48747;50.250;18.848;2023-07-16T04:00:48;7.72;;;5.42;;
37355;SDS011;48747;50.250;18.848;2023-07-16T04:02:51;9.55;;;6.03;;
37355;SDS011;48747;50.250;18.848;2023-07-16T04:04:55;9.95;;;5.08;;
37355;SDS011;48747;50.250;18.848;2023-07-16T04:06:57;6.83;;;4.90;;
37355;SDS011;48747;50.250;18.848;2023-07-16T04:09:00;8.55;;;5.53;;
37355;SDS011;48747;50.250;18.848;2023-07-16T04:11:04;5.62;;;4.87;;
37355;SDS011;48747;50.250;18.848;2023-07-16T04:13:08;5.90;;;4.90;;
37355;SDS011;48747;50.250;18.848;2023-07-16T04:15:11;7.55;;;5.37;;
37355;SDS011;48747;50.250;18.848;2023-07-16T04:17:14;6.65;;;5.28;;
37355;SDS011;48747;50.250;18.848;2023-07-16T04:19:17;7.53;;;5.37;;
37355;SDS011;48747;50.250;18.848;2023-07-16T04:21:20;7.75;;;5.22;;
37355;SDS011;48747;50.250;18.848;2023-07-16T04:23:23;6.75;;;5.08;;
37355;SDS011;48747;50.250;18.848;2023-07-16T04:25:26;8.08;;;5.55;;
37355;SDS011;48747;50.250;18.848;2023-07-16T04:27:30;6.72;;;4.80;;
37355;SDS011;48747;50.250;18.848;2023-07-16T04:29:33;9.13;;;5.47;;
37355;SDS011;48747;50.250;18.848;2023-07-16T04:31:36;5.97;;;4.90;;
37355;SDS011;48747;50.250;18.848;2023-07-16T04:33:39;6.65;;;5.22;;
37355;SDS011;48747;50.250;18.848;2023-07-16T04:35:42;10.40;;;5.17;;
37355;SDS011;48747;50.250;18.848;2023-07-16T04:37:45;7.08;;;5.20;;
37355;SDS011;48747;50.250;18.848;2023-07-16T04:39:48;6.80;;;5.22;;
37355;SDS011;48747;50.250;18.848;2023-07-16T04:41:52;9.75;;;5.40;;
37355;SDS011;48747;50.250;18.848;2023-07-16T04:43:55;7.80;;;5.80;;
37355;SDS011;48747;50.250;18.848;2023-07-16T04:45:58;9.40;;;5.17;;
37355;SDS011;48747;50.250;18.848;2023-07-16T04:48:01;8.23;;;5.42;;
37355;SDS011;48747;50.250;18.848;2023-07-16T04:50:04;7.95;;;5.40;;
37355;SDS011;48747;50.250;18.848;2023-07-16T04:52:07;9.25;;;5.15;;
37355;SDS011;48747;50.250;18.848;2023-07-16T04:54:10;7.28;;;5.47;;
37355;SDS011;48747;50.250;18.848;2023-07-16T04:56:14;7.47;;;5.95;;
37355;SDS011;48747;50.250;18.848;2023-07-16T04:58:17;10.10;;;6.10;;
37355;SDS011;48747;50.250;18.848;2023-07-16T05:00:20;8.50;;;6.15;;
37355;SDS011;48747;50.250;18.848;2023-07-16T05:02:23;11.00;;;6.25;;
37355;SDS011;48747;50.250;18.848;2023-07-16T05:04:27;9.95;;;6.28;;
37355;SDS011;48747;50.250;18.848;2023-07-16T05:06:29;11.12;;;6.12;;
37355;SDS011;48747;50.250;18.848;2023-07-16T05:08:32;7.80;;;6.00;;
37355;SDS011;48747;50.250;18.848;2023-07-16T05:10:36;8.33;;;6.20;;
37355;SDS011;48747;50.250;18.848;2023-07-16T05:12:39;10.88;;;7.10;;
37355;SDS011;48747;50.250;18.848;2023-07-16T05:14:48;10.60;;;6.90;;
37355;SDS011;48747;50.250;18.848;2023-07-16T05:16:48;10.05;;;6.35;;
37355;SDS011;48747;50.250;18.848;2023-07-16T05:18:51;12.98;;;6.40;;
37355;SDS011;48747;50.250;18.848;2023-07-16T05:20:54;9.85;;;6.58;;
37355;SDS011;48747;50.250;18.848;2023-07-16T05:22:57;8.63;;;6.40;;
37355;SDS011;48747;50.250;18.848;2023-07-16T05:25:00;10.93;;;6.80;;
37355;SDS011;48747;50.250;18.848;2023-07-16T05:27:03;12.75;;;7.10;;
37355;SDS011;48747;50.250;18.848;2023-07-16T05:29:06;11.55;;;7.30;;
37355;SDS011;48747;50.250;18.848;2023-07-16T05:31:09;10.98;;;7.15;;
37355;SDS011;48747;50.250;18.848;2023-07-16T05:33:12;9.63;;;7.30;;
37355;SDS011;48747;50.250;18.848;2023-07-16T05:35:15;12.25;;;7.10;;
37355;SDS011;48747;50.250;18.848;2023-07-16T05:37:18;11.15;;;7.08;;
37355;SDS011;48747;50.250;18.848;2023-07-16T05:39:22;13.65;;;7.50;;
37355;SDS011;48747;50.250;18.848;2023-07-16T05:41:25;11.40;;;7.67;;
37355;SDS011;48747;50.250;18.848;2023-07-16T05:43:28;11.18;;;7.17;;
37355;SDS011;48747;50.250;18.848;2023-07-16T05:45:31;10.43;;;7.67;;
37355;SDS011;48747;50.250;18.848;2023-07-16T05:47:36;12.33;;;7.47;;
37355;SDS011;48747;50.250;18.848;2023-07-16T05:49:39;12.65;;;7.85;;
37355;SDS011;48747;50.250;18.848;2023-07-16T05:51:42;11.33;;;7.45;;
37355;SDS011;48747;50.250;18.848;2023-07-16T05:53:45;11.33;;;7.22;;
37355;SDS011;48747;50.250;18.848;2023-07-16T05:55:48;11.90;;;7.62;;
37355;SDS011;48747;50.250;18.848;2023-07-16T05:57:53;11.03;;;8.03;;
37355;SDS011;48747;50.250;18.848;2023-07-16T05:59:56;14.43;;;7.80;;
37355;SDS011;48747;50.250;18.848;2023-07-16T06:01:59;13.80;;;8.93;;
37355;SDS011;48747;50.250;18.848;2023-07-16T06:04:02;13.80;;;8.85;;
37355;SDS011;48747;50.250;18.848;2023-07-16T06:06:05;15.85;;;8.98;;
37355;SDS011;48747;50.250;18.848;2023-07-16T06:08:12;14.65;;;8.80;;
37355;SDS011;48747;50.250;18.848;2023-07-16T06:10:15;14.15;;;8.65;;
37355;SDS011;48747;50.250;18.848;2023-07-16T06:12:24;19.42;;;9.20;;
37355;SDS011;48747;50.250;18.848;2023-07-16T06:14:23;14.53;;;8.63;;
37355;SDS011;48747;50.250;18.848;2023-07-16T06:16:26;17.95;;;9.30;;
37355;SDS011;48747;50.250;18.848;2023-07-16T06:18:29;14.68;;;9.58;;
37355;SDS011;48747;50.250;18.848;2023-07-16T06:20:32;18.52;;;9.60;;
37355;SDS011;48747;50.250;18.848;2023-07-16T06:22:36;15.15;;;9.48;;
37355;SDS011;48747;50.250;18.848;2023-07-16T06:24:39;13.88;;;8.98;;
37355;SDS011;48747;50.250;18.848;2023-07-16T06:26:42;14.63;;;9.03;;
37355;SDS011;48747;50.250;18.848;2023-07-16T06:28:45;13.03;;;8.33;;
37355;SDS011;48747;50.250;18.848;2023-07-16T06:30:50;14.23;;;8.73;;
37355;SDS011;48747;50.250;18.848;2023-07-16T06:32:54;11.25;;;8.58;;
37355;SDS011;48747;50.250;18.848;2023-07-16T06:34:57;14.25;;;9.55;;
37355;SDS011;48747;50.250;18.848;2023-07-16T06:37:00;12.85;;;8.78;;
37355;SDS011;48747;50.250;18.848;2023-07-16T06:39:03;14.20;;;9.03;;
37355;SDS011;48747;50.250;18.848;2023-07-16T06:41:06;18.25;;;9.45;;
37355;SDS011;48747;50.250;18.848;2023-07-16T06:43:09;13.50;;;8.63;;
37355;SDS011;48747;50.250;18.848;2023-07-16T06:45:12;15.43;;;9.15;;
37355;SDS011;48747;50.250;18.848;2023-07-16T06:47:16;12.37;;;8.05;;
37355;SDS011;48747;50.250;18.848;2023-07-16T06:49:19;14.53;;;8.30;;
37355;SDS011;48747;50.250;18.848;2023-07-16T06:51:25;12.18;;;8.73;;
37355;SDS011;48747;50.250;18.848;2023-07-16T06:53:30;12.43;;;8.40;;
37355;SDS011;48747;50.250;18.848;2023-07-16T06:55:33;12.35;;;9.15;;
37355;SDS011;48747;50.250;18.848;2023-07-16T06:57:36;14.58;;;9.30;;
37355;SDS011;48747;50.250;18.848;2023-07-16T06:59:39;13.13;;;8.93;;
37355;SDS011;48747;50.250;18.848;2023-07-16T07:01:42;12.00;;;9.48;;
37355;SDS011;48747;50.250;18.848;2023-07-16T07:03:45;12.90;;;9.20;;
37355;SDS011;48747;50.250;18.848;2023-07-16T07:05:48;16.12;;;9.65;;
37355;SDS011;48747;50.250;18.848;2023-07-16T07:07:51;11.88;;;8.80;;
37355;SDS011;48747;50.250;18.848;2023-07-16T07:09:54;12.23;;;9.05;;
37355;SDS011;48747;50.250;18.848;2023-07-16T07:11:57;10.50;;;8.70;;
37355;SDS011;48747;50.250;18.848;2023-07-16T07:14:00;12.63;;;9.53;;
37355;SDS011;48747;50.250;18.848;2023-07-16T07:16:03;11.90;;;9.78;;
37355;SDS011;48747;50.250;18.848;2023-07-16T07:18:06;13.68;;;9.40;;
37355;SDS011;48747;50.250;18.848;2023-07-16T07:20:09;8.85;;;7.65;;
37355;SDS011;48747;50.250;18.848;2023-07-16T07:22:13;11.48;;;7.42;;
37355;SDS011;48747;50.250;18.848;2023-07-16T07:24:16;10.00;;;7.67;;
37355;SDS011;48747;50.250;18.848;2023-07-16T07:26:19;9.73;;;8.18;;
37355;SDS011;48747;50.250;18.848;2023-07-16T07:28:22;9.15;;;7.87;;
37355;SDS011;48747;50.250;18.848;2023-07-16T07:30:25;10.03;;;7.35;;
37355;SDS011;48747;50.250;18.848;2023-07-16T07:32:28;8.73;;;7.70;;
37355;SDS011;48747;50.250;18.848;2023-07-16T07:34:31;11.55;;;7.28;;
37355;SDS011;48747;50.250;18.848;2023-07-16T07:36:34;9.53;;;7.28;;
37355;SDS011;48747;50.250;18.848;2023-07-16T07:38:37;8.10;;;7.30;;
37355;SDS011;48747;50.250;18.848;2023-07-16T07:40:42;8.58;;;7.40;;
37355;SDS011;48747;50.250;18.848;2023-07-16T07:42:45;12.50;;;7.50;;
37355;SDS011;48747;50.250;18.848;2023-07-16T07:44:48;13.40;;;6.87;;
37355;SDS011;48747;50.250;18.848;2023-07-16T07:46:51;10.35;;;7.50;;
37355;SDS011;48747;50.250;18.848;2023-07-16T07:48:54;9.65;;;7.20;;
37355;SDS011;48747;50.250;18.848;2023-07-16T07:50:57;8.03;;;7.20;;
37355;SDS011;48747;50.250;18.848;2023-07-16T07:53:00;10.98;;;7.40;;
37355;SDS011;48747;50.250;18.848;2023-07-16T07:55:03;9.65;;;7.28;;
37355;SDS011;48747;50.250;18.848;2023-07-16T07:57:07;12.88;;;7.97;;
37355;SDS011;48747;50.250;18.848;2023-07-16T07:59:10;8.35;;;7.47;;
37355;SDS011;48747;50.250;18.848;2023-07-16T08:01:13;8.20;;;7.40;;
37355;SDS011;48747;50.250;18.848;2023-07-16T08:03:16;9.33;;;7.72;;
37355;SDS011;48747;50.250;18.848;2023-07-16T08:05:19;11.30;;;7.42;;
37355;SDS011;48747;50.250;18.848;2023-07-16T08:07:22;8.80;;;7.33;;
37355;SDS011;48747;50.250;18.848;2023-07-16T08:09:27;8.70;;;6.90;;
37355;SDS011;48747;50.250;18.848;2023-07-16T08:11:30;10.55;;;7.45;;
37355;SDS011;48747;50.250;18.848;2023-07-16T08:13:33;9.83;;;7.08;;
37355;SDS011;48747;50.250;18.848;2023-07-16T08:15:36;9.63;;;7.47;;
37355;SDS011;48747;50.250;18.848;2023-07-16T08:17:40;8.23;;;7.42;;
37355;SDS011;48747;50.250;18.848;2023-07-16T08:19:43;8.63;;;7.72;;
37355;SDS011;48747;50.250;18.848;2023-07-16T08:21:46;10.00;;;7.62;;
37355;SDS011;48747;50.250;18.848;2023-07-16T08:23:49;8.88;;;8.05;;
37355;SDS011;48747;50.250;18.848;2023-07-16T08:25:52;8.60;;;7.70;;
37355;SDS011;48747;50.250;18.848;2023-07-16T08:27:55;8.75;;;7.85;;
37355;SDS011;48747;50.250;18.848;2023-07-16T08:29:58;11.10;;;8.13;;
37355;SDS011;48747;50.250;18.848;2023-07-16T08:32:01;9.03;;;8.13;;
37355;SDS011;48747;50.250;18.848;2023-07-16T08:34:05;12.65;;;8.93;;
37355;SDS011;48747;50.250;18.848;2023-07-16T08:36:08;11.50;;;8.70;;
37355;SDS011;48747;50.250;18.848;2023-07-16T08:38:12;11.08;;;8.53;;
37355;SDS011;48747;50.250;18.848;2023-07-16T08:40:15;11.93;;;7.85;;
37355;SDS011;48747;50.250;18.848;2023-07-16T08:42:18;9.60;;;8.55;;
37355;SDS011;48747;50.250;18.848;2023-07-16T08:44:21;9.30;;;8.35;;
37355;SDS011;48747;50.250;18.848;2023-07-16T08:46:25;10.30;;;8.28;;
37355;SDS011;48747;50.250;18.848;2023-07-16T08:48:28;11.28;;;8.38;;
37355;SDS011;48747;50.250;18.848;2023-07-16T08:50:31;9.70;;;7.70;;
37355;SDS011;48747;50.250;18.848;2023-07-16T08:52:38;13.48;;;8.40;;
37355;SDS011;48747;50.250;18.848;2023-07-16T08:54:41;10.75;;;8.03;;
37355;SDS011;48747;50.250;18.848;2023-07-16T08:56:44;9.60;;;8.50;;
37355;SDS011;48747;50.250;18.848;2023-07-16T08:58:49;10.50;;;7.60;;
37355;SDS011;48747;50.250;18.848;2023-07-16T09:00:54;11.88;;;7.80;;
37355;SDS011;48747;50.250;18.848;2023-07-16T09:02:58;9.50;;;7.62;;
37355;SDS011;48747;50.250;18.848;2023-07-16T09:05:01;7.97;;;7.17;;
37355;SDS011;48747;50.250;18.848;2023-07-16T09:07:05;11.25;;;7.17;;
37355;SDS011;48747;50.250;18.848;2023-07-16T09:09:08;10.38;;;6.03;;
37355;SDS011;48747;50.250;18.848;2023-07-16T09:11:12;8.98;;;6.15;;
37355;SDS011;48747;50.250;18.848;2023-07-16T09:13:18;7.80;;;5.30;;
37355;SDS011;48747;50.250;18.848;2023-07-16T09:15:21;10.48;;;4.92;;
37355;SDS011;48747;50.250;18.848;2023-07-16T09:17:24;8.40;;;5.78;;
37355;SDS011;48747;50.250;18.848;2023-07-16T09:19:27;7.65;;;5.37;;
37355;SDS011;48747;50.250;18.848;2023-07-16T09:21:33;8.45;;;5.10;;
37355;SDS011;48747;50.250;18.848;2023-07-16T09:23:38;7.60;;;5.35;;
37355;SDS011;48747;50.250;18.848;2023-07-16T09:25:43;6.20;;;5.37;;
37355;SDS011;48747;50.250;18.848;2023-07-16T09:27:48;10.85;;;5.40;;
37355;SDS011;48747;50.250;18.848;2023-07-16T09:29:51;9.28;;;5.62;;
37355;SDS011;48747;50.250;18.848;2023-07-16T09:31:58;6.37;;;5.15;;
37355;SDS011;48747;50.250;18.848;2023-07-16T09:34:03;9.50;;;5.70;;
37355;SDS011;48747;50.250;18.848;2023-07-16T09:36:06;6.95;;;5.25;;
37355;SDS011;48747;50.250;18.848;2023-07-16T09:38:10;9.23;;;5.85;;
37355;SDS011;48747;50.250;18.848;2023-07-16T09:40:13;9.43;;;5.53;;
37355;SDS011;48747;50.250;18.848;2023-07-16T09:42:16;9.10;;;5.65;;
37355;SDS011;48747;50.250;18.848;2023-07-16T09:44:21;12.50;;;6.37;;
37355;SDS011;48747;50.250;18.848;2023-07-16T09:46:25;6.97;;;5.70;;
37355;SDS011;48747;50.250;18.848;2023-07-16T09:48:28;8.48;;;5.45;;
37355;SDS011;48747;50.250;18.848;2023-07-16T09:50:32;7.80;;;5.97;;
37355;SDS011;48747;50.250;18.848;2023-07-16T09:52:36;10.00;;;5.97;;
37355;SDS011;48747;50.250;18.848;2023-07-16T09:54:43;8.13;;;5.62;;
37355;SDS011;48747;50.250;18.848;2023-07-16T09:56:49;7.40;;;5.72;;
37355;SDS011;48747;50.250;18.848;2023-07-16T09:58:54;5.87;;;5.05;;
37355;SDS011;48747;50.250;18.848;2023-07-16T10:01:00;8.28;;;5.37;;
37355;SDS011;48747;50.250;18.848;2023-07-16T10:03:07;6.78;;;5.25;;
37355;SDS011;48747;50.250;18.848;2023-07-16T10:05:11;10.05;;;5.20;;
37355;SDS011;48747;50.250;18.848;2023-07-16T10:07:23;5.62;;;5.00;;
37355;SDS011;48747;50.250;18.848;2023-07-16T10:09:31;6.45;;;4.97;;
37355;SDS011;48747;50.250;18.848;2023-07-16T10:11:36;8.35;;;4.90;;
37355;SDS011;48747;50.250;18.848;2023-07-16T10:13:39;8.08;;;4.95;;
37355;SDS011;48747;50.250;18.848;2023-07-16T10:15:52;6.62;;;4.80;;
37355;SDS011;48747;50.250;18.848;2023-07-16T10:17:57;5.70;;;4.87;;
37355;SDS011;48747;50.250;18.848;2023-07-16T10:20:06;6.33;;;5.20;;
37355;SDS011;48747;50.250;18.848;2023-07-16T10:22:12;5.15;;;4.50;;
37355;SDS011;48747;50.250;18.848;2023-07-16T10:24:16;8.43;;;4.90;;
37355;SDS011;48747;50.250;18.848;2023-07-16T10:26:25;7.20;;;4.75;;
37355;SDS011;48747;50.250;18.848;2023-07-16T10:28:31;8.65;;;4.28;;
37355;SDS011;48747;50.250;18.848;2023-07-16T10:30:35;6.30;;;4.65;;
37355;SDS011;48747;50.250;18.848;2023-07-16T10:32:38;7.00;;;4.53;;
37355;SDS011;48747;50.250;18.848;2023-07-16T10:34:41;6.45;;;4.12;;
37355;SDS011;48747;50.250;18.848;2023-07-16T10:36:45;4.95;;;4.00;;
37355;SDS011;48747;50.250;18.848;2023-07-16T10:38:48;4.80;;;4.30;;
37355;SDS011;48747;50.250;18.848;2023-07-16T10:40:51;7.55;;;4.55;;
37355;SDS011;48747;50.250;18.848;2023-07-16T10:42:54;5.22;;;4.40;;
37355;SDS011;48747;50.250;18.848;2023-07-16T10:44:59;9.73;;;4.58;;
37355;SDS011;48747;50.250;18.848;2023-07-16T10:47:03;6.90;;;4.45;;
37355;SDS011;48747;50.250;18.848;2023-07-16T10:49:06;5.78;;;4.28;;
37355;SDS011;48747;50.250;18.848;2023-07-16T10:51:09;5.80;;;4.08;;
37355;SDS011;48747;50.250;18.848;2023-07-16T10:53:14;4.75;;;4.03;;
37355;SDS011;48747;50.250;18.848;2023-07-16T10:55:17;8.88;;;4.08;;
37355;SDS011;48747;50.250;18.848;2023-07-16T10:57:23;5.35;;;4.40;;
37355;SDS011;48747;50.250;18.848;2023-07-16T10:59:27;5.90;;;4.45;;
37355;SDS011;48747;50.250;18.848;2023-07-16T11:01:33;6.12;;;4.50;;
37355;SDS011;48747;50.250;18.848;2023-07-16T11:03:36;7.87;;;4.80;;
37355;SDS011;48747;50.250;18.848;2023-07-16T11:05:39;5.97;;;5.37;;
37355;SDS011;48747;50.250;18.848;2023-07-16T11:07:45;4.67;;;4.25;;
37355;SDS011;48747;50.250;18.848;2023-07-16T11:09:50;6.65;;;3.62;;
37355;SDS011;48747;50.250;18.848;2023-07-16T11:11:54;4.78;;;4.08;;
37355;SDS011;48747;50.250;18.848;2023-07-16T11:13:58;4.75;;;3.77;;
37355;SDS011;48747;50.250;18.848;2023-07-16T11:16:12;4.53;;;3.65;;
37355;SDS011;48747;50.250;18.848;2023-07-16T11:18:11;4.33;;;3.85;;
37355;SDS011;48747;50.250;18.848;2023-07-16T11:20:15;5.17;;;3.85;;
37355;SDS011;48747;50.250;18.848;2023-07-16T11:22:19;6.15;;;3.98;;
37355;SDS011;48747;50.250;18.848;2023-07-16T11:24:24;5.80;;;4.00;;
37355;SDS011;48747;50.250;18.848;2023-07-16T11:26:28;7.92;;;4.33;;
37355;SDS011;48747;50.250;18.848;2023-07-16T11:28:38;7.15;;;4.70;;
37355;SDS011;48747;50.250;18.848;2023-07-16T11:30:42;6.28;;;5.15;;
37355;SDS011;48747;50.250;18.848;2023-07-16T11:32:46;9.58;;;5.60;;
37355;SDS011;48747;50.250;18.848;2023-07-16T11:34:53;6.97;;;5.75;;
37355;SDS011;48747;50.250;18.848;2023-07-16T11:37:06;6.80;;;4.90;;
37355;SDS011;48747;50.250;18.848;2023-07-16T11:39:18;7.15;;;4.90;;
37355;SDS011;48747;50.250;18.848;2023-07-16T11:41:19;5.50;;;4.90;;
37355;SDS011;48747;50.250;18.848;2023-07-16T11:43:24;5.05;;;4.53;;
37355;SDS011;48747;50.250;18.848;2023-07-16T11:45:27;6.75;;;4.60;;
37355;SDS011;48747;50.250;18.848;2023-07-16T11:47:30;6.35;;;4.90;;
37355;SDS011;48747;50.250;18.848;2023-07-16T11:49:34;6.78;;;4.95;;
37355;SDS011;48747;50.250;18.848;2023-07-16T11:51:37;6.80;;;4.78;;
37355;SDS011;48747;50.250;18.848;2023-07-16T11:53:40;5.95;;;4.60;;
37355;SDS011;48747;50.250;18.848;2023-07-16T11:55:43;6.85;;;5.03;;
37355;SDS011;48747;50.250;18.848;2023-07-16T11:57:46;5.85;;;4.70;;
37355;SDS011;48747;50.250;18.848;2023-07-16T11:59:49;7.03;;;4.53;;
37355;SDS011;48747;50.250;18.848;2023-07-16T12:01:52;6.75;;;4.75;;
37355;SDS011;48747;50.250;18.848;2023-07-16T12:03:55;5.58;;;4.50;;
37355;SDS011;48747;50.250;18.848;2023-07-16T12:05:58;7.03;;;4.67;;
37355;SDS011;48747;50.250;18.848;2023-07-16T12:08:01;6.47;;;4.33;;
37355;SDS011;48747;50.250;18.848;2023-07-16T12:10:05;6.53;;;4.70;;
37355;SDS011;48747;50.250;18.848;2023-07-16T12:12:09;7.05;;;4.40;;
37355;SDS011;48747;50.250;18.848;2023-07-16T12:14:12;7.33;;;4.87;;